Time;durP1;ratioP1;P1;durP2;ratioP2;P2;SDS_P1;SDS_P2;PMS_P1;PMS_P2;Temp;Humidity;BMP_temperature;BMP_pressure;BME280_temperature;BME280_humidity;BME280_pressure;Samples;Min_cycle;Max_cycle;Signal;HPM_P1;HPM_P2
2021/12/12 00:01:53;;;;;;;9.45;3.85;;;;;;;3.19;80.69;101351.00;5040128;28;20461;-78
2021/12/12 00:04:32;;;;;;;11.30;3.72;;;;;;;3.22;80.41;101364.03;5034003;28;20708;-78
2021/12/12 00:06:59;;;;;;;9.02;4.03;;;;;;;3.14;80.64;101356.00;5032862;28;20403;-78
2021/12/12 00:09:41;;;;;;;7.83;3.40;;;;;;;3.07;80.74;101358.56;5031805;28;20407;-78
2021/12/12 00:12:13;;;;;;;6.30;3.38;;;;;;;3.01;80.42;101364.63;5039890;28;20447;-78
2021/12/12 00:14:39;;;;;;;8.43;3.30;;;;;;;3.01;80.41;101361.94;5033036;28;20407;-78
2021/12/12 00:17:08;;;;;;;7.77;3.07;;;;;;;3.08;80.12;101359.41;5036827;28;20755;-78
2021/12/12 00:19:35;;;;;;;8.43;3.22;;;;;;;3.12;79.78;101363.41;5036050;28;20416;-78
2021/12/12 00:22:04;;;;;;;10.27;3.47;;;;;;;3.17;79.18;101368.22;5039111;28;20425;-78
2021/12/12 00:24:30;;;;;;;8.50;2.50;;;;;;;3.23;79.22;101372.91;5040750;28;20426;-77
2021/12/12 00:26:57;;;;;;;7.45;3.17;;;;;;;3.21;79.09;101373.06;5037975;28;20411;-78
2021/12/12 00:29:24;;;;;;;9.57;3.22;;;;;;;3.30;78.93;101372.00;5031312;28;20418;-78
2021/12/12 00:31:52;;;;;;;10.05;5.75;;;;;;;3.38;78.49;101373.81;5035797;28;20527;-78
2021/12/12 00:34:17;;;;;;;9.00;4.63;;;;;;;3.44;78.00;101365.06;5034796;28;20434;-78
2021/12/12 00:36:43;;;;;;;9.07;4.22;;;;;;;3.52;77.48;101376.56;5037387;28;20415;-78
2021/12/12 00:39:19;;;;;;;8.45;3.88;;;;;;;3.58;77.29;101372.34;5031742;28;20413;-78
2021/12/12 00:41:50;;;;;;;10.52;4.80;;;;;;;3.62;77.78;101368.31;5032416;28;20505;-78
2021/12/12 00:44:16;;;;;;;11.80;5.30;;;;;;;3.60;77.96;101375.69;5035544;28;20403;-78
2021/12/12 00:46:42;;;;;;;12.98;4.05;;;;;;;3.63;78.09;101372.66;5034382;28;20735;-78
2021/12/12 00:49:08;;;;;;;13.05;5.38;;;;;;;3.64;77.85;101383.22;5034632;28;20407;-78
2021/12/12 00:51:38;;;;;;;8.18;3.30;;;;;;;3.65;78.41;101394.78;5031494;28;20501;-78
2021/12/12 00:54:04;;;;;;;12.85;4.13;;;;;;;3.62;78.23;101393.25;5044890;28;20508;-78
2021/12/12 00:56:30;;;;;;;11.73;3.72;;;;;;;3.69;78.19;101392.56;5033124;28;20882;-78
2021/12/12 00:58:56;;;;;;;9.18;2.88;;;;;;;3.73;77.50;101391.19;5046118;28;20494;-78
2021/12/12 01:01:26;;;;;;;6.33;2.63;;;;;;;3.78;77.36;101395.03;5042040;28;20405;-78
2021/12/12 01:03:58;;;;;;;8.80;2.42;;;;;;;3.79;77.54;101391.31;5050490;28;20418;-78
2021/12/12 01:06:24;;;;;;;9.50;3.20;;;;;;;3.78;76.38;101389.66;5039305;28;20395;-78
2021/12/12 01:08:52;;;;;;;11.25;4.15;;;;;;;3.75;75.84;101391.84;5029762;28;20494;-78
2021/12/12 01:11:31;;;;;;;10.05;4.13;;;;;;;3.63;76.52;101383.38;5035649;28;20393;-78
2021/12/12 01:13:57;;;;;;;10.65;4.57;;;;;;;3.58;77.21;101380.41;5040459;28;20468;-78
2021/12/12 01:16:38;;;;;;;6.78;4.38;;;;;;;3.57;77.71;101386.75;5030888;28;20403;-78
2021/12/12 01:19:08;;;;;;;11.68;4.65;;;;;;;3.55;78.33;101383.44;5035346;28;20926;-77
2021/12/12 01:21:39;;;;;;;10.23;5.47;;;;;;;3.50;78.64;101378.59;5044043;28;20402;-78
2021/12/12 01:24:09;;;;;;;9.98;5.32;;;;;;;3.42;79.31;101372.47;5034047;28;20411;-78
2021/12/12 01:26:35;;;;;;;10.13;5.07;;;;;;;3.39;79.48;101381.66;5037683;28;20444;-77
2021/12/12 01:29:01;;;;;;;11.35;5.28;;;;;;;3.38;79.66;101388.06;5034247;28;20904;-78
2021/12/12 01:31:31;;;;;;;9.30;5.23;;;;;;;3.39;79.58;101383.53;5033336;28;20430;-78
2021/12/12 01:34:13;;;;;;;14.02;5.05;;;;;;;3.43;79.28;101382.97;5029627;28;20485;-78
2021/12/12 01:40:02;;;;;;;8.80;4.40;;;;;;;3.52;78.42;101370.41;5038554;28;20415;-77
2021/12/12 01:42:38;;;;;;;10.25;4.57;;;;;;;3.53;78.41;101382.75;5036498;28;20399;-78
2021/12/12 01:45:18;;;;;;;9.35;4.45;;;;;;;3.51;78.51;101384.78;5043652;28;20409;-78
2021/12/12 01:47:53;;;;;;;10.45;4.78;;;;;;;3.39;78.87;101381.66;5035959;28;20418;-77
2021/12/12 01:50:25;;;;;;;9.35;4.50;;;;;;;3.25;79.15;101382.44;5046724;28;20928;-78
2021/12/12 01:52:52;;;;;;;12.35;4.57;;;;;;;3.16;79.75;101382.63;5039145;28;20413;-78
2021/12/12 01:55:27;;;;;;;9.65;5.38;;;;;;;3.13;80.19;101375.75;5049393;28;20486;-78
2021/12/12 01:57:56;;;;;;;12.35;5.28;;;;;;;3.09;80.54;101385.19;5035889;28;20470;-77
2021/12/12 02:00:27;;;;;;;11.25;5.95;;;;;;;3.08;80.38;101380.81;5036397;28;20504;-78
2021/12/12 02:02:53;;;;;;;13.90;6.30;;;;;;;3.09;80.68;101390.53;5040653;28;20421;-78
2021/12/12 02:05:20;;;;;;;9.07;5.25;;;;;;;3.10;80.64;101382.31;5036080;28;20411;-77
2021/12/12 02:07:57;;;;;;;8.65;5.55;;;;;;;3.13;80.77;101376.59;5035237;28;20407;-78
2021/12/12 02:10:27;;;;;;;9.98;5.60;;;;;;;3.20;80.70;101387.44;5043110;28;20480;-77
2021/12/12 02:12:53;;;;;;;16.23;5.32;;;;;;;3.23;80.49;101387.09;5038725;28;20461;-78
2021/12/12 02:15:19;;;;;;;8.67;4.63;;;;;;;3.22;80.31;101376.59;5045189;28;20454;-78
2021/12/12 02:17:48;;;;;;;12.32;4.50;;;;;;;3.23;80.18;101373.72;5031505;28;20411;-77
2021/12/12 02:20:40;;;;;;;8.33;4.17;;;;;;;3.30;79.80;101387.25;5035375;28;20403;-77
2021/12/12 02:36:42;;;;;;;7.22;3.90;;;;;;;3.44;79.95;101381.16;5035805;28;20410;-78
2021/12/12 02:39:15;;;;;;;10.52;4.18;;;;;;;3.45;80.25;101374.78;5034932;28;20462;-78
2021/12/12 02:41:43;;;;;;;9.30;3.85;;;;;;;3.47;80.37;101383.47;5039021;28;20425;-78
2021/12/12 02:44:08;;;;;;;6.72;3.92;;;;;;;3.47;80.10;101386.16;5035845;28;20415;-78
2021/12/12 02:46:36;;;;;;;7.53;3.88;;;;;;;3.44;80.35;101379.31;5040168;28;20758;-77
2021/12/12 02:49:09;;;;;;;6.95;3.60;;;;;;;3.39;80.15;101370.13;5033471;28;20489;-78
2021/12/12 02:51:40;;;;;;;7.68;3.88;;;;;;;3.35;80.44;101380.38;5038321;28;20410;-78
2021/12/12 02:54:06;;;;;;;7.82;4.85;;;;;;;3.32;80.59;101387.91;5038136;28;20419;-78
2021/12/12 02:56:40;;;;;;;11.93;4.88;;;;;;;3.33;80.75;101386.88;5038998;28;20426;-78
2021/12/12 02:59:10;;;;;;;9.32;4.75;;;;;;;3.37;80.46;101378.34;5034385;28;20837;-78
2021/12/12 03:01:43;;;;;;;10.77;4.80;;;;;;;3.43;80.20;101372.28;5032475;28;20403;-78
2021/12/12 03:04:10;;;;;;;10.57;5.63;;;;;;;3.47;80.18;101376.28;5032082;28;20454;-77
2021/12/12 03:06:39;;;;;;;15.95;8.02;;;;;;;3.49;80.17;101384.97;5036613;28;20823;-78
2021/12/12 03:09:15;;;;;;;24.60;14.67;;;;;;;3.53;80.03;101390.78;5036249;28;20453;-78
2021/12/12 03:11:40;;;;;;;18.30;9.45;;;;;;;3.52;79.99;101376.56;5038227;28;20770;-77
2021/12/12 03:14:07;;;;;;;11.25;7.60;;;;;;;3.47;80.19;101383.47;5034434;28;20422;-78
2021/12/12 03:16:33;;;;;;;17.52;8.35;;;;;;;3.36;80.66;101383.88;5041432;28;20880;-78
2021/12/12 03:18:59;;;;;;;14.13;8.47;;;;;;;3.36;80.92;101386.56;5034986;28;20411;-77
2021/12/12 03:21:32;;;;;;;16.95;8.48;;;;;;;3.34;80.57;101378.69;5048889;28;20915;-77
2021/12/12 03:24:05;;;;;;;13.38;8.32;;;;;;;3.27;80.82;101383.06;5049563;28;20411;-78
2021/12/12 03:26:31;;;;;;;12.65;7.50;;;;;;;3.26;81.13;101375.22;5039634;28;20401;-78
2021/12/12 03:28:58;;;;;;;21.23;11.05;;;;;;;3.22;81.36;101379.25;5037223;28;20709;-78
2021/12/12 03:31:28;;;;;;;16.55;8.73;;;;;;;3.13;81.56;101375.75;5043124;28;20457;-78
2021/12/12 03:33:54;;;;;;;16.77;10.10;;;;;;;3.05;81.92;101376.66;5040773;28;20508;-78
2021/12/12 03:36:19;;;;;;;15.07;9.30;;;;;;;3.05;82.11;101373.97;5037188;28;20503;-78
2021/12/12 03:38:52;;;;;;;15.70;7.90;;;;;;;3.11;81.89;101380.47;5038525;28;20518;-78
2021/12/12 03:41:21;;;;;;;11.80;7.57;;;;;;;3.11;81.94;101381.31;5049535;28;20510;-78
2021/12/12 03:43:53;;;;;;;11.85;7.65;;;;;;;3.09;81.96;101375.31;5040373;28;20407;-78
2021/12/12 03:46:19;;;;;;;16.63;8.20;;;;;;;3.07;81.78;101376.47;5033759;28;20482;-77
2021/12/12 03:48:45;;;;;;;13.27;7.95;;;;;;;3.03;81.98;101373.28;5038038;28;20415;-78
2021/12/12 03:51:14;;;;;;;18.45;8.75;;;;;;;3.00;82.27;101381.69;5033863;28;20798;-78
2021/12/12 03:53:40;;;;;;;14.52;9.40;;;;;;;2.92;82.72;101370.19;5047779;28;20421;-77
2021/12/12 03:56:08;;;;;;;19.33;10.13;;;;;;;2.93;82.53;101369.19;5033256;28;20463;-78
2021/12/12 03:58:33;;;;;;;15.05;10.35;;;;;;;2.92;82.67;101372.84;5032896;28;20901;-78
2021/12/12 04:01:13;;;;;;;17.33;10.70;;;;;;;2.88;82.67;101380.41;5055175;28;20414;-78
2021/12/12 04:03:41;;;;;;;13.60;9.88;;;;;;;2.88;83.10;101376.88;5035525;28;20402;-78
2021/12/12 04:06:10;;;;;;;12.43;9.38;;;;;;;2.88;83.14;101379.56;5043744;28;20443;-77
2021/12/12 04:08:46;;;;;;;16.38;10.43;;;;;;;2.86;82.96;101377.06;5040178;28;20438;-78
2021/12/12 04:11:22;;;;;;;17.45;10.40;;;;;;;2.85;83.29;101375.38;5032980;28;20477;-78
2021/12/12 04:13:50;;;;;;;15.60;9.77;;;;;;;2.79;83.29;101381.44;5038804;28;20422;-78
2021/12/12 04:16:17;;;;;;;13.77;10.10;;;;;;;2.72;82.96;101387.63;5037889;28;20397;-78
2021/12/12 04:18:43;;;;;;;13.18;8.75;;;;;;;2.68;83.30;101378.28;5028783;28;21028;-77
2021/12/12 04:21:08;;;;;;;15.52;9.50;;;;;;;2.65;83.10;101379.47;5036986;28;20405;-78
2021/12/12 04:23:35;;;;;;;11.90;8.43;;;;;;;2.65;83.20;101376.78;5035409;28;20411;-77
2021/12/12 04:26:16;;;;;;;14.63;9.00;;;;;;;2.66;82.91;101381.13;5040162;28;20843;-78
2021/12/12 04:28:42;;;;;;;13.18;8.45;;;;;;;2.64;83.23;101377.78;5033866;28;20454;-78
2021/12/12 04:31:07;;;;;;;16.35;8.82;;;;;;;2.60;83.20;101382.63;5036722;28;20454;-78
2021/12/12 04:33:34;;;;;;;13.77;8.75;;;;;;;2.56;83.17;101383.16;5031379;28;20485;-78
2021/12/12 04:36:00;;;;;;;17.23;8.93;;;;;;;2.54;83.57;101380.66;5036246;28;20397;-78
2021/12/12 04:38:25;;;;;;;14.07;8.07;;;;;;;2.55;83.23;101390.34;5035573;28;20489;-78
2021/12/12 04:40:51;;;;;;;17.40;9.43;;;;;;;2.50;83.35;101390.00;5033419;28;20419;-78
2021/12/12 04:43:16;;;;;;;14.70;9.70;;;;;;;2.46;83.80;101391.38;5036258;28;20425;-78
2021/12/12 04:45:51;;;;;;;11.77;8.90;;;;;;;2.45;83.78;101394.22;5034016;28;20469;-78
2021/12/12 04:51:22;;;;;;;12.85;7.88;;;;;;;2.42;84.00;101387.38;5032460;28;20472;-78
2021/12/12 04:53:58;;;;;;;17.52;8.73;;;;;;;2.41;83.74;101388.34;5039170;28;20904;-78
2021/12/12 04:56:58;;;;;;;10.18;6.55;;;;;;;2.34;84.10;101394.56;5034969;28;20417;-78
2021/12/12 04:59:37;;;;;;;12.75;7.25;;;;;;;2.36;83.90;101395.22;5035405;28;20780;-78
2021/12/12 05:02:10;;;;;;;14.15;6.88;;;;;;;2.41;83.83;101400.91;5034237;28;20537;-78
2021/12/12 05:04:41;;;;;;;9.95;6.72;;;;;;;2.41;83.52;101399.06;5030260;28;20418;-77
2021/12/12 05:07:29;;;;;;;13.93;8.75;;;;;;;2.48;83.60;101397.38;5040082;28;20393;-78
2021/12/12 05:10:07;;;;;;;10.20;7.25;;;;;;;2.53;83.41;101403.06;5024283;28;20960;-78
2021/12/12 05:12:37;;;;;;;11.48;6.90;;;;;;;2.55;83.17;101397.53;5031772;28;20423;-77
2021/12/12 05:15:09;;;;;;;9.18;6.47;;;;;;;2.54;82.52;101399.38;5041931;28;20494;-78
2021/12/12 05:17:40;;;;;;;15.00;7.27;;;;;;;2.54;82.78;101401.22;5039643;28;20502;-78
2021/12/12 05:20:10;;;;;;;12.18;6.78;;;;;;;2.54;82.52;101402.06;5042813;28;20495;-78
2021/12/12 05:22:49;;;;;;;11.75;7.45;;;;;;;2.49;82.76;101407.09;5031701;28;20458;-78
2021/12/12 05:26:03;;;;;;;10.70;6.30;;;;;;;2.47;82.84;101421.66;5040870;28;20484;-78
2021/12/12 05:28:33;;;;;;;10.95;6.03;;;;;;;2.44;82.69;101420.13;5024050;28;20465;-78
2021/12/12 05:31:00;;;;;;;10.02;6.65;;;;;;;2.44;82.28;101425.47;5032158;28;20399;-78
2021/12/12 05:33:28;;;;;;;14.60;8.23;;;;;;;2.42;82.31;101423.97;5036043;28;20446;-78
2021/12/12 05:35:53;;;;;;;11.63;7.30;;;;;;;2.40;82.38;101421.50;5038987;28;20432;-78
2021/12/12 05:38:22;;;;;;;11.50;7.57;;;;;;;2.39;81.92;101424.31;5034270;28;20459;-78
2021/12/12 05:40:48;;;;;;;9.20;7.38;;;;;;;2.35;82.49;101426.50;5031401;28;20425;-78
2021/12/12 05:43:15;;;;;;;15.05;6.97;;;;;;;2.35;82.13;101431.00;5037239;28;22019;-78
2021/12/12 05:45:41;;;;;;;9.52;5.68;;;;;;;2.34;82.35;101434.69;5031454;28;20411;-78
2021/12/12 05:48:08;;;;;;;10.48;6.30;;;;;;;2.33;82.10;101433.84;5038015;28;20957;-78
2021/12/12 05:50:35;;;;;;;12.77;7.25;;;;;;;2.35;82.08;101434.50;5036596;28;20481;-78
2021/12/12 05:53:00;;;;;;;10.00;6.10;;;;;;;2.35;81.84;101431.84;5034641;28;20884;-78
2021/12/12 05:55:29;;;;;;;8.90;5.50;;;;;;;2.40;82.08;101434.03;5032705;28;20441;-78
2021/12/12 05:57:56;;;;;;;6.72;4.50;;;;;;;2.43;81.44;101437.19;5047061;28;20407;-78
2021/12/12 06:00:30;;;;;;;11.18;4.68;;;;;;;2.44;81.36;101438.00;5040893;28;20456;-77
2021/12/12 06:02:57;;;;;;;12.02;4.72;;;;;;;2.43;81.16;101437.19;5029268;28;20427;-78
2021/12/12 06:05:23;;;;;;;10.57;4.88;;;;;;;2.42;81.33;101440.88;5045515;28;20416;-78
2021/12/12 06:07:53;;;;;;;8.15;5.15;;;;;;;2.36;81.54;101446.06;5030934;28;20403;-78
2021/12/12 06:10:18;;;;;;;10.13;5.18;;;;;;;2.32;81.65;101445.56;5030794;28;20407;-78
2021/12/12 06:12:44;;;;;;;9.40;5.40;;;;;;;2.33;82.04;101452.59;5032152;28;20414;-78
2021/12/12 06:15:14;;;;;;;7.73;4.83;;;;;;;2.36;81.88;101456.75;5028269;28;20421;-78
2021/12/12 06:17:40;;;;;;;9.43;4.75;;;;;;;2.38;81.89;101457.41;5035648;28;20401;-78
2021/12/12 06:20:08;;;;;;;8.82;4.53;;;;;;;2.40;81.93;101456.25;5037890;28;20888;-77
2021/12/12 06:22:35;;;;;;;7.25;4.43;;;;;;;2.40;82.03;101458.09;5039825;28;20413;-78
2021/12/12 06:25:00;;;;;;;7.73;4.80;;;;;;;2.39;82.17;101459.94;5031426;28;20490;-78
2021/12/12 06:27:27;;;;;;;7.10;4.47;;;;;;;2.39;81.99;101459.94;5038900;28;20497;-78
2021/12/12 06:29:54;;;;;;;10.70;4.15;;;;;;;2.38;82.16;101466.28;5037170;28;20407;-78
2021/12/12 06:32:20;;;;;;;7.40;4.72;;;;;;;2.37;81.87;101459.25;5050329;28;20418;-78
2021/12/12 06:34:47;;;;;;;5.47;4.53;;;;;;;2.39;82.20;101457.25;5034172;28;20414;-78
2021/12/12 06:37:12;;;;;;;9.27;5.13;;;;;;;2.37;81.78;101464.59;5039571;28;20870;-77
2021/12/12 06:39:38;;;;;;;10.23;5.67;;;;;;;2.38;81.95;101474.31;5044132;28;20408;-78
2021/12/12 06:42:05;;;;;;;9.73;6.38;;;;;;;2.41;82.31;101473.97;5037654;28;20418;-78
2021/12/12 06:44:37;;;;;;;13.80;7.00;;;;;;;2.44;82.27;101476.31;5033051;28;21223;-78
2021/12/12 06:47:03;;;;;;;22.02;10.55;;;;;;;2.42;82.53;101472.13;5033589;28;20395;-78
2021/12/12 06:49:29;;;;;;;18.50;9.90;;;;;;;2.47;82.72;101478.63;5031392;28;20546;-78
2021/12/12 06:51:59;;;;;;;25.13;14.43;;;;;;;2.54;82.60;101479.66;5036095;28;20411;-78
2021/12/12 06:54:27;;;;;;;19.80;10.70;;;;;;;2.57;82.60;101494.53;5035255;28;20809;-78
2021/12/12 06:56:59;;;;;;;16.83;9.20;;;;;;;2.65;82.72;101493.69;5033579;28;20407;-78
2021/12/12 06:59:29;;;;;;;15.68;7.50;;;;;;;2.71;82.56;101484.97;5035988;28;20403;-78
2021/12/12 07:01:55;;;;;;;11.50;7.57;;;;;;;2.76;82.07;101479.97;5050201;28;20517;-78
2021/12/12 07:04:21;;;;;;;10.13;6.28;;;;;;;2.78;82.10;101494.84;5036842;28;20421;-78
2021/12/12 07:06:52;;;;;;;14.80;7.82;;;;;;;2.87;81.74;101491.16;5040092;28;20489;-78
2021/12/12 07:09:17;;;;;;;10.52;5.60;;;;;;;2.85;81.92;101485.16;5033491;28;20905;-78
2021/12/12 07:11:43;;;;;;;8.55;5.28;;;;;;;2.93;81.66;101495.81;5028349;28;20411;-78
2021/12/12 07:14:10;;;;;;;9.82;4.63;;;;;;;2.99;81.37;101492.50;5038772;28;20419;-77
2021/12/12 07:16:37;;;;;;;9.63;5.40;;;;;;;3.05;81.10;101494.47;5035840;28;20399;-78
2021/12/12 07:19:03;;;;;;;8.23;4.50;;;;;;;3.09;80.67;101493.16;5042574;28;20402;-78
2021/12/12 07:21:30;;;;;;;7.50;5.22;;;;;;;3.08;80.01;101490.63;5037258;28;20875;-78
2021/12/12 07:23:58;;;;;;;4.77;4.07;;;;;;;3.06;79.94;101492.66;5028434;28;20418;-78
2021/12/12 07:26:24;;;;;;;8.50;3.65;;;;;;;3.07;79.91;101507.69;5049320;28;20411;-78
2021/12/12 07:28:51;;;;;;;8.85;4.28;;;;;;;3.09;80.42;101506.53;5031899;28;20465;-78
2021/12/12 07:31:20;;;;;;;8.90;4.63;;;;;;;3.13;80.22;101501.63;5034283;28;20405;-79
2021/12/12 07:33:51;;;;;;;6.22;4.53;;;;;;;3.19;80.10;101497.47;5030400;28;20415;-79
2021/12/12 07:36:18;;;;;;;8.60;5.43;;;;;;;3.19;80.08;101492.94;5028005;28;20409;-78
2021/12/12 07:38:47;;;;;;;8.15;5.45;;;;;;;3.17;80.05;101492.25;5029603;28;20508;-78
2021/12/12 07:41:13;;;;;;;10.18;5.72;;;;;;;3.19;80.05;101492.94;5038766;28;20488;-78
2021/12/12 07:43:38;;;;;;;7.63;4.53;;;;;;;3.25;79.83;101496.78;5038181;28;20419;-79
2021/12/12 07:46:05;;;;;;;8.68;4.10;;;;;;;3.30;79.53;101507.78;5034667;28;20912;-79
2021/12/12 07:48:32;;;;;;;11.45;6.10;;;;;;;3.31;79.63;101501.44;5050460;28;20780;-79
2021/12/12 07:50:58;;;;;;;12.87;5.77;;;;;;;3.32;79.36;101500.44;5034218;28;20414;-79
2021/12/12 07:53:26;;;;;;;13.77;9.77;;;;;;;3.35;79.37;101502.78;5043317;28;20488;-79
2021/12/12 07:55:53;;;;;;;5.22;3.33;;;;;;;3.37;79.49;101504.25;5036071;28;20427;-79
2021/12/12 07:58:25;;;;;;;4.90;3.95;;;;;;;3.32;79.65;101513.84;5047384;28;20480;-79
2021/12/12 08:01:06;;;;;;;5.45;3.47;;;;;;;3.30;79.57;101505.13;5037715;28;20493;-79
2021/12/12 08:03:33;;;;;;;9.73;4.28;;;;;;;3.33;79.59;101512.81;5040348;28;20876;-78
2021/12/12 08:06:02;;;;;;;6.45;3.78;;;;;;;3.39;79.09;101512.13;5035577;28;20404;-78
2021/12/12 08:08:29;;;;;;;9.13;3.55;;;;;;;3.46;78.71;101513.94;5034052;28;20452;-77
2021/12/12 08:10:56;;;;;;;6.43;4.40;;;;;;;3.56;78.47;101521.78;5040821;28;20907;-78
2021/12/12 08:13:22;;;;;;;6.03;3.88;;;;;;;3.62;78.15;101515.75;5043568;28;20778;-78
2021/12/12 08:15:48;;;;;;;7.35;3.83;;;;;;;3.67;78.26;101516.88;5038383;28;20475;-79
2021/12/12 08:18:16;;;;;;;6.95;3.90;;;;;;;3.71;77.81;101509.31;5045966;28;20987;-78
2021/12/12 08:20:44;;;;;;;4.15;3.40;;;;;;;3.72;77.82;101504.81;5032942;28;20434;-78
2021/12/12 08:23:10;;;;;;;5.38;3.50;;;;;;;3.73;77.41;101501.09;5038612;28;20490;-78
2021/12/12 08:25:36;;;;;;;7.63;3.97;;;;;;;3.76;77.68;101506.94;5041042;28;20822;-78
2021/12/12 08:28:03;;;;;;;7.32;4.68;;;;;;;3.79;76.98;101508.47;5056604;28;20889;-78
2021/12/12 08:30:31;;;;;;;4.82;3.40;;;;;;;3.84;77.29;101511.44;5040695;28;20423;-77
2021/12/12 08:32:57;;;;;;;4.22;3.10;;;;;;;3.85;77.04;101507.75;5035560;28;20772;-79
2021/12/12 08:35:25;;;;;;;4.53;3.10;;;;;;;3.89;76.67;101504.53;5035654;28;20766;-78
2021/12/12 08:37:50;;;;;;;4.65;3.08;;;;;;;3.90;76.81;101503.53;5060735;28;20438;-78
2021/12/12 08:40:22;;;;;;;4.93;3.00;;;;;;;3.95;76.54;101508.38;5039009;28;20441;-78
2021/12/12 08:42:51;;;;;;;5.32;2.88;;;;;;;4.00;76.82;101504.13;5051799;28;20855;-79
2021/12/12 08:45:20;;;;;;;5.80;3.45;;;;;;;4.13;76.58;101515.13;5037268;28;20418;-78
2021/12/12 08:47:48;;;;;;;6.15;4.55;;;;;;;4.25;76.78;101515.53;5037248;28;20408;-78
2021/12/12 08:50:19;;;;;;;5.45;3.00;;;;;;;4.29;76.01;101508.81;5039074;28;20437;-79
2021/12/12 08:52:47;;;;;;;7.43;4.88;;;;;;;4.30;76.28;101502.44;5034086;28;20913;-80
2021/12/12 08:55:19;;;;;;;5.50;3.28;;;;;;;4.39;75.52;101506.72;5046550;28;20394;-78
2021/12/12 08:57:57;;;;;;;8.68;4.05;;;;;;;4.52;75.57;101509.63;5039344;28;20402;-79
2021/12/12 09:00:42;;;;;;;4.50;3.35;;;;;;;4.59;75.06;101507.06;5033560;28;20399;-79
2021/12/12 09:04:05;;;;;;;8.75;2.80;;;;;;;4.68;74.66;101517.56;5037985;28;20452;-78
2021/12/12 09:06:36;;;;;;;9.87;4.33;;;;;;;4.74;74.79;101512.50;5029060;28;21076;-79
2021/12/12 09:09:18;;;;;;;12.18;5.72;;;;;;;4.66;74.63;101516.91;5035751;28;20401;-80
2021/12/12 09:12:02;;;;;;;8.43;4.68;;;;;;;4.64;74.09;101523.50;5040080;28;20509;-79
2021/12/12 09:15:02;;;;;;;5.53;3.00;;;;;;;4.78;73.39;101511.94;5033530;28;20469;-79
2021/12/12 09:17:50;;;;;;;6.35;2.78;;;;;;;4.65;73.67;101525.97;5042624;28;20464;-79
2021/12/12 09:20:21;;;;;;;6.75;3.35;;;;;;;4.77;73.54;101531.78;5033951;28;20395;-79
2021/12/12 09:23:00;;;;;;;5.50;2.70;;;;;;;4.72;73.71;101526.09;5031109;28;20477;-79
2021/12/12 09:25:56;;;;;;;6.70;3.60;;;;;;;4.99;72.92;101528.19;5035212;28;20897;-78
2021/12/12 09:28:27;;;;;;;4.53;2.40;;;;;;;4.94;72.52;101533.25;5044049;28;20876;-79
2021/12/12 09:31:02;;;;;;;4.68;2.22;;;;;;;4.86;72.70;101530.69;5038700;28;20424;-78
2021/12/12 09:33:33;;;;;;;4.07;2.17;;;;;;;5.06;72.08;101531.00;5036154;28;20432;-78
2021/12/12 09:36:20;;;;;;;2.10;1.80;;;;;;;5.07;72.03;101532.66;5034443;28;20478;-79
2021/12/12 09:38:51;;;;;;;2.80;2.30;;;;;;;5.19;72.07;101533.88;5050642;28;20484;-78
2021/12/12 09:41:25;;;;;;;3.13;1.92;;;;;;;5.09;72.15;101539.53;5036824;28;20423;-79
2021/12/12 09:43:50;;;;;;;3.78;1.90;;;;;;;5.12;72.69;101532.94;5041464;28;20832;-78
2021/12/12 09:47:25;;;;;;;5.50;2.53;;;;;;;5.21;72.01;101527.28;5036378;28;20422;-79
2021/12/12 09:53:42;;;;;;;4.05;1.98;;;;;;;5.17;72.05;101523.31;5031437;28;20468;-79
2021/12/12 09:56:34;;;;;;;4.07;2.03;;;;;;;5.20;72.21;101514.88;5034897;28;20407;-78
2021/12/12 09:59:23;;;;;;;3.80;2.22;;;;;;;5.31;71.83;101515.44;5034870;28;20414;-79
2021/12/12 10:02:07;;;;;;;4.35;1.92;;;;;;;5.46;70.80;101517.13;5038502;28;20411;-78
2021/12/12 10:05:02;;;;;;;5.18;2.00;;;;;;;5.47;70.88;101518.78;5040359;28;20471;-78
2021/12/12 10:07:46;;;;;;;4.68;2.33;;;;;;;5.35;71.88;101509.50;5048415;28;20480;-80
2021/12/12 10:10:25;;;;;;;4.07;1.88;;;;;;;5.49;71.19;101508.69;5058188;28;20410;-79
2021/12/12 10:13:34;;;;;;;5.85;2.13;;;;;;;5.47;71.34;101510.72;5052655;28;20413;-77
2021/12/12 10:16:05;;;;;;;6.43;2.42;;;;;;;5.52;71.53;101513.69;5004727;28;20424;-79
2021/12/12 10:18:50;;;;;;;3.58;2.00;;;;;;;5.57;71.06;101513.94;5042374;28;20446;-79
2021/12/12 10:21:37;;;;;;;5.38;2.92;;;;;;;5.67;69.93;101514.50;5036365;28;20885;-80
2021/12/12 10:24:24;;;;;;;6.18;3.25;;;;;;;5.67;70.75;101505.59;5037616;28;21004;-80
2021/12/12 10:27:01;;;;;;;7.28;2.50;;;;;;;5.82;69.66;101510.97;5037323;28;20442;-79
2021/12/12 10:29:33;;;;;;;5.97;2.60;;;;;;;5.90;70.16;101513.56;5045933;28;20436;-79
2021/12/12 10:32:10;;;;;;;3.80;1.70;;;;;;;5.66;70.34;101503.94;5038453;28;20513;-79
2021/12/12 10:34:41;;;;;;;5.30;2.13;;;;;;;5.68;69.89;101505.41;5040111;28;20935;-79
2021/12/12 10:37:21;;;;;;;4.97;2.13;;;;;;;5.61;70.05;101511.72;5037033;28;20762;-79
2021/12/12 10:40:06;;;;;;;5.80;2.22;;;;;;;5.62;70.53;101503.47;5040867;28;20397;-79
2021/12/12 10:42:44;;;;;;;4.10;1.83;;;;;;;5.57;70.32;101499.66;5049456;28;20410;-79
2021/12/12 10:45:17;;;;;;;4.68;2.03;;;;;;;5.62;69.87;101497.28;5040834;28;20460;-79
2021/12/12 10:48:06;;;;;;;2.28;1.73;;;;;;;5.64;69.78;101504.13;5039424;28;20407;-79
2021/12/12 10:50:55;;;;;;;4.63;2.33;;;;;;;5.63;70.39;101490.88;5036139;28;21179;-79
2021/12/12 10:53:34;;;;;;;4.40;2.17;;;;;;;5.55;70.62;101489.13;5050634;28;20411;-79
2021/12/12 10:56:19;;;;;;;4.47;2.17;;;;;;;5.57;69.87;101487.06;5035556;28;20874;-79
2021/12/12 10:58:48;;;;;;;5.07;2.28;;;;;;;5.60;69.92;101485.84;5041073;28;20440;-79
2021/12/12 11:01:23;;;;;;;4.27;1.90;;;;;;;5.57;70.51;101494.28;5042029;28;20413;-79
2021/12/12 11:04:03;;;;;;;4.80;2.05;;;;;;;5.41;70.88;101492.63;5034171;28;20422;-79
2021/12/12 11:06:34;;;;;;;3.13;2.00;;;;;;;5.37;70.74;101493.22;5036410;28;20411;-79
2021/12/12 11:09:34;;;;;;;2.63;2.13;;;;;;;5.26;71.17;101485.59;5047413;28;20439;-78
2021/12/12 11:12:13;;;;;;;3.88;2.70;;;;;;;5.35;71.15;101485.31;5039868;28;20446;-79
2021/12/12 11:14:52;;;;;;;6.43;3.35;;;;;;;5.42;70.62;101480.03;5035904;28;20425;-78
2021/12/12 11:17:25;;;;;;;8.25;3.53;;;;;;;5.50;70.84;101485.34;5035401;28;20405;-79
2021/12/12 11:20:04;;;;;;;4.68;3.15;;;;;;;5.59;70.79;101478.81;5042063;28;21955;-78
2021/12/12 11:22:51;;;;;;;3.80;2.28;;;;;;;5.54;70.16;101473.16;5046989;28;20401;-79
2021/12/12 11:25:16;;;;;;;4.88;3.28;;;;;;;5.59;69.76;101476.13;5049315;28;20460;-79
2021/12/12 11:27:54;;;;;;;5.63;3.57;;;;;;;5.66;69.88;101474.38;5044887;28;20470;-78
2021/12/12 11:30:30;;;;;;;4.85;3.75;;;;;;;5.75;69.81;101476.75;5040062;28;20442;-78
2021/12/12 11:32:57;;;;;;;5.75;3.38;;;;;;;5.82;69.53;101466.06;5034916;28;20419;-79
2021/12/12 11:35:26;;;;;;;3.05;2.63;;;;;;;5.93;69.36;101468.28;5042268;28;20404;-78
2021/12/12 11:38:02;;;;;;;6.53;3.40;;;;;;;6.27;68.27;101467.63;5061263;28;20436;-80
2021/12/12 11:40:39;;;;;;;4.78;3.45;;;;;;;6.38;68.01;101474.34;5049840;28;20435;-78
2021/12/12 11:43:25;;;;;;;4.18;2.72;;;;;;;6.36;67.99;101476.38;5034097;28;20921;-78
2021/12/12 11:46:02;;;;;;;5.60;3.15;;;;;;;6.13;67.93;101472.03;5037915;28;20418;-78
2021/12/12 11:48:52;;;;;;;7.50;3.03;;;;;;;6.01;68.33;101470.88;5037082;28;20435;-78
2021/12/12 11:51:27;;;;;;;8.02;4.72;;;;;;;5.95;68.56;101468.94;5043520;28;20897;-78
2021/12/12 11:54:01;;;;;;;6.93;3.58;;;;;;;6.18;67.80;101464.22;5034248;28;20433;-79
2021/12/12 11:56:34;;;;;;;8.13;5.05;;;;;;;6.15;68.40;101464.63;5036388;28;20395;-79
2021/12/12 11:59:08;;;;;;;5.30;3.67;;;;;;;6.18;68.26;101456.16;5041039;28;20402;-79
2021/12/12 12:01:47;;;;;;;6.00;4.05;;;;;;;6.07;68.00;101455.81;5033066;28;20505;-80
2021/12/12 12:04:31;;;;;;;2.70;2.50;;;;;;;5.97;68.10;101457.97;5043529;28;20904;-79
2021/12/12 12:07:01;;;;;;;4.83;3.00;;;;;;;5.99;67.84;101458.63;5037857;28;20424;-79
2021/12/12 12:09:52;;;;;;;5.10;3.60;;;;;;;6.14;68.07;101449.47;5039811;28;20399;-79
2021/12/12 12:12:40;;;;;;;3.70;2.60;;;;;;;6.10;67.83;101450.03;5035744;28;20763;-79
2021/12/12 12:15:17;;;;;;;4.00;2.55;;;;;;;6.24;67.01;101452.69;5039017;28;20402;-79
2021/12/12 12:18:12;;;;;;;3.22;2.20;;;;;;;6.29;67.38;101459.34;5048329;28;20438;-79